createdAt,value
2023-05-03T00:00:34.013Z,0.00
2023-05-03T00:01:34.049Z,0.00
2023-05-03T00:02:34.157Z,0.00
2023-05-03T00:03:33.997Z,0.00
2023-05-03T00:04:33.990Z,0.00
2023-05-03T00:05:34.061Z,0.00
2023-05-03T00:06:34.120Z,0.00
2023-05-03T00:07:33.977Z,0.00
2023-05-03T00:08:33.971Z,0.00
2023-05-03T00:09:33.972Z,0.00
2023-05-03T00:10:33.963Z,0.00
2023-05-03T00:11:33.967Z,0.00
2023-05-03T00:12:33.977Z,0.00
2023-05-03T00:13:33.949Z,0.00
2023-05-03T00:14:33.941Z,0.00
2023-05-03T00:15:33.942Z,0.00
2023-05-03T00:16:33.959Z,0.00
2023-05-03T00:17:33.971Z,0.00
2023-05-03T00:18:33.921Z,0.00
2023-05-03T00:19:33.919Z,0.00
2023-05-03T00:20:33.913Z,0.00
2023-05-03T00:21:33.916Z,0.00
2023-05-03T00:22:33.917Z,0.00
2023-05-03T00:23:33.904Z,0.00
2023-05-03T00:24:33.911Z,0.00
2023-05-03T00:25:33.900Z,0.00
2023-05-03T00:26:33.887Z,0.00
2023-05-03T00:27:33.880Z,0.00
2023-05-03T00:28:37.053Z,0.00
2023-05-03T00:29:33.872Z,0.00
2023-05-03T00:30:33.867Z,0.00
2023-05-03T00:31:33.936Z,0.00
2023-05-03T00:32:33.902Z,0.00
2023-05-03T00:33:33.855Z,0.00
2023-05-03T00:34:33.843Z,0.00
2023-05-03T00:35:33.847Z,0.00
2023-05-03T00:36:35.241Z,0.00
2023-05-03T00:37:33.839Z,0.00
2023-05-03T00:38:33.825Z,0.00
2023-05-03T00:39:33.825Z,0.00
2023-05-03T00:40:33.824Z,0.00
2023-05-03T00:41:33.809Z,0.00
2023-05-03T00:42:33.814Z,0.00
2023-05-03T00:43:33.802Z,0.00
2023-05-03T00:44:33.811Z,0.00
2023-05-03T00:45:33.797Z,0.00
2023-05-03T00:46:33.853Z,0.00
2023-05-03T00:47:33.859Z,0.00
2023-05-03T00:48:33.775Z,0.00
2023-05-03T00:49:33.773Z,0.00
2023-05-03T00:50:33.776Z,0.00
2023-05-03T00:51:33.759Z,0.00
2023-05-03T00:52:33.773Z,0.00
2023-05-03T00:53:33.757Z,0.00
2023-05-03T00:54:33.746Z,0.00
2023-05-03T00:55:33.944Z,0.00
2023-05-03T00:56:44.441Z,0.00
2023-05-03T00:57:33.725Z,0.00
2023-05-03T00:58:33.724Z,0.00
2023-05-03T00:59:33.721Z,0.00
2023-05-03T01:00:33.732Z,0.00
2023-05-03T01:01:33.730Z,0.00
2023-05-03T01:02:33.762Z,0.00
2023-05-03T01:03:33.788Z,0.00
2023-05-03T01:04:33.696Z,0.00
2023-05-03T01:05:33.685Z,0.00
2023-05-03T01:06:33.721Z,0.00
2023-05-03T01:07:33.705Z,0.00
2023-05-03T01:08:33.668Z,0.00
2023-05-03T01:09:33.664Z,0.00
2023-05-03T01:10:33.666Z,0.00
2023-05-03T01:11:33.669Z,0.00
2023-05-03T01:12:33.653Z,0.00
2023-05-03T01:13:33.649Z,0.00
2023-05-03T01:14:33.644Z,0.00
2023-05-03T01:15:33.633Z,0.00
2023-05-03T01:16:33.662Z,0.00
2023-05-03T01:17:33.685Z,0.00
2023-05-03T01:18:33.677Z,0.00
2023-05-03T01:19:33.669Z,0.00
2023-05-03T01:20:33.660Z,0.00
2023-05-03T01:21:33.648Z,0.00
2023-05-03T01:22:33.597Z,0.00
2023-05-03T01:23:33.597Z,0.00
2023-05-03T01:24:33.589Z,0.00
2023-05-03T01:25:33.586Z,0.00
2023-05-03T01:26:33.582Z,0.00
2023-05-03T01:27:33.571Z,0.00
2023-05-03T01:28:33.566Z,0.00
2023-05-03T01:29:33.561Z,0.00
2023-05-03T01:30:33.554Z,0.00
2023-05-03T01:31:33.576Z,0.00
2023-05-03T01:32:33.578Z,0.00
2023-05-03T01:33:33.536Z,0.00
2023-05-03T01:34:33.536Z,0.00
2023-05-03T01:35:33.533Z,0.00
2023-05-03T01:36:33.518Z,0.00
2023-05-03T01:37:33.522Z,0.00
2023-05-03T01:38:33.529Z,0.00
2023-05-03T01:39:33.513Z,0.00
2023-05-03T01:40:33.501Z,0.00
2023-05-03T01:41:33.497Z,0.00
2023-05-03T01:42:33.494Z,0.00
2023-05-03T01:43:33.483Z,0.00
2023-05-03T01:44:33.502Z,0.00
2023-05-03T01:45:33.507Z,0.00
2023-05-03T01:46:33.543Z,0.00
2023-05-03T01:47:33.515Z,0.00
2023-05-03T01:48:33.478Z,0.00
2023-05-03T01:49:33.452Z,0.00
2023-05-03T01:50:33.465Z,0.00
2023-05-03T01:51:33.448Z,0.00
2023-05-03T01:52:33.442Z,0.00
2023-05-03T01:53:33.428Z,0.00
2023-05-03T01:54:33.431Z,0.00
2023-05-03T01:55:33.673Z,0.00
2023-05-03T01:56:33.422Z,0.00
2023-05-03T01:57:33.412Z,0.00
2023-05-03T01:58:33.418Z,0.00
2023-05-03T01:59:33.425Z,0.00
2023-05-03T02:00:33.401Z,0.00
2023-05-03T02:01:33.560Z,0.00
2023-05-03T02:02:33.422Z,0.00
2023-05-03T02:03:33.380Z,0.00
2023-05-03T02:04:33.484Z,0.00
2023-05-03T02:05:33.366Z,0.00
2023-05-03T02:06:33.380Z,0.00
2023-05-03T02:07:33.357Z,0.00
2023-05-03T02:08:33.353Z,0.00
2023-05-03T02:09:33.363Z,0.00
2023-05-03T02:10:33.507Z,0.00
2023-05-03T02:11:33.338Z,0.00
2023-05-03T02:12:33.344Z,0.00
2023-05-03T02:13:33.327Z,0.00
2023-05-03T02:14:33.333Z,0.00
2023-05-03T02:15:33.314Z,0.00
2023-05-03T02:16:33.336Z,0.00
2023-05-03T02:17:33.310Z,0.00
2023-05-03T02:18:33.297Z,0.00
2023-05-03T02:19:33.290Z,0.00
2023-05-03T02:20:33.305Z,0.00
2023-05-03T02:21:33.283Z,0.00
2023-05-03T02:22:33.278Z,0.00
2023-05-03T02:23:33.275Z,0.00
2023-05-03T02:24:33.264Z,0.00
2023-05-03T02:25:33.257Z,0.00
2023-05-03T02:26:33.262Z,0.00
2023-05-03T02:27:33.246Z,0.00
2023-05-03T02:28:33.240Z,0.00
2023-05-03T02:29:33.261Z,0.00
2023-05-03T02:30:33.239Z,0.00
2023-05-03T02:31:33.295Z,0.00
2023-05-03T02:32:33.286Z,0.00
2023-05-03T02:33:33.218Z,0.00
2023-05-03T02:34:33.216Z,0.00
2023-05-03T02:35:33.205Z,0.00
2023-05-03T02:36:33.239Z,0.00
2023-05-03T02:37:33.193Z,0.00
2023-05-03T02:38:33.199Z,0.00
2023-05-03T02:39:33.190Z,0.00
2023-05-03T02:40:33.182Z,0.00
2023-05-03T02:41:33.167Z,0.00
2023-05-03T02:42:33.166Z,0.00
2023-05-03T02:43:33.162Z,0.00
2023-05-03T02:44:33.869Z,0.00
2023-05-03T02:45:33.155Z,0.00
2023-05-03T02:46:33.176Z,0.00
2023-05-03T02:47:33.194Z,0.00
2023-05-03T02:48:33.135Z,0.00
2023-05-03T02:49:33.126Z,0.00
2023-05-03T02:50:33.123Z,0.00
2023-05-03T02:51:33.116Z,0.00
2023-05-03T02:52:33.145Z,0.00
2023-05-03T02:53:33.105Z,0.00
2023-05-03T02:54:33.100Z,0.00
2023-05-03T02:55:33.092Z,0.00
2023-05-03T02:56:33.096Z,0.00
2023-05-03T02:57:33.082Z,0.00
2023-05-03T02:58:33.078Z,0.00
2023-05-03T02:59:33.073Z,0.00
2023-05-03T03:00:33.319Z,0.00
2023-05-03T03:01:33.122Z,0.00
2023-05-03T03:02:33.139Z,0.00
2023-05-03T03:03:33.120Z,0.00
2023-05-03T03:04:33.048Z,0.00
2023-05-03T03:05:33.043Z,0.00
2023-05-03T03:06:33.068Z,0.00
2023-05-03T03:07:33.029Z,0.00
2023-05-03T03:08:33.059Z,0.00
2023-05-03T03:09:33.033Z,0.00
2023-05-03T03:10:33.019Z,0.00
2023-05-03T03:11:33.016Z,0.00
2023-05-03T03:12:33.012Z,0.00
2023-05-03T03:13:32.999Z,0.00
2023-05-03T03:14:32.992Z,0.00
2023-05-03T03:15:32.992Z,0.00
2023-05-03T03:16:33.086Z,0.00
2023-05-03T03:17:33.094Z,0.00
2023-05-03T03:18:32.976Z,0.00
2023-05-03T03:19:32.964Z,0.00
2023-05-03T03:20:33.059Z,0.00
2023-05-03T03:21:32.949Z,0.00
2023-05-03T03:22:32.947Z,0.00
2023-05-03T03:23:33.043Z,0.00
2023-05-03T03:24:32.957Z,0.00
2023-05-03T03:25:32.937Z,0.00
2023-05-03T03:26:32.929Z,0.00
2023-05-03T03:27:32.919Z,0.00
2023-05-03T03:28:32.928Z,0.00
2023-05-03T03:29:32.937Z,0.00
2023-05-03T03:30:32.908Z,0.00
2023-05-03T03:31:32.941Z,0.00
2023-05-03T03:32:32.925Z,0.00
2023-05-03T03:33:32.909Z,0.00
2023-05-03T03:34:32.886Z,0.00
2023-05-03T03:35:32.877Z,0.00
2023-05-03T03:36:32.871Z,0.00
2023-05-03T03:37:32.864Z,0.00
2023-05-03T03:38:32.862Z,0.00
2023-05-03T03:39:32.862Z,0.00
2023-05-03T03:40:32.867Z,0.00
2023-05-03T03:41:32.847Z,0.00
2023-05-03T03:42:32.844Z,0.00
2023-05-03T03:43:32.866Z,4.00
2023-05-03T03:44:32.829Z,0.00
2023-05-03T03:45:32.822Z,0.00
2023-05-03T03:46:32.862Z,0.00
2023-05-03T03:47:32.837Z,4.00
2023-05-03T03:48:32.834Z,0.00
2023-05-03T03:49:32.801Z,0.00
2023-05-03T03:50:32.802Z,4.00
2023-05-03T03:51:32.795Z,0.00
2023-05-03T03:52:32.797Z,4.00
2023-05-03T03:53:32.778Z,4.00
2023-05-03T03:54:32.776Z,0.00
2023-05-03T03:55:32.775Z,4.00
2023-05-03T03:56:32.792Z,4.00
2023-05-03T03:57:32.764Z,4.00
2023-05-03T03:58:32.760Z,4.00
2023-05-03T03:59:32.749Z,4.00
2023-05-03T04:00:32.744Z,4.00
2023-05-03T04:01:32.761Z,8.00
2023-05-03T04:02:32.858Z,4.00
2023-05-03T04:03:32.824Z,8.00
2023-05-03T04:04:32.725Z,8.00
2023-05-03T04:05:32.719Z,8.00
2023-05-03T04:06:32.768Z,8.00
2023-05-03T04:07:32.710Z,12.00
2023-05-03T04:08:32.698Z,12.00
2023-05-03T04:09:32.703Z,8.00
2023-05-03T04:10:32.696Z,12.00
2023-05-03T04:11:32.686Z,12.00
2023-05-03T04:12:32.700Z,12.00
2023-05-03T04:13:32.680Z,16.00
2023-05-03T04:14:32.667Z,16.00
2023-05-03T04:15:32.662Z,16.00
2023-05-03T04:16:32.705Z,16.00
2023-05-03T04:17:32.680Z,16.00
2023-05-03T04:18:32.647Z,20.00
2023-05-03T04:19:32.643Z,16.00
2023-05-03T04:20:32.635Z,20.00
2023-05-03T04:21:32.627Z,20.00
2023-05-03T04:22:32.629Z,20.00
2023-05-03T04:23:32.619Z,24.00
2023-05-03T04:24:32.614Z,24.00
2023-05-03T04:25:32.614Z,28.00
2023-05-03T04:26:32.611Z,24.00
2023-05-03T04:27:32.599Z,24.00
2023-05-03T04:28:32.614Z,32.00
2023-05-03T04:29:32.593Z,32.00
2023-05-03T04:30:32.578Z,32.00
2023-05-03T04:31:32.677Z,32.00
2023-05-03T04:32:32.625Z,36.00
2023-05-03T04:33:32.567Z,36.00
2023-05-03T04:34:32.558Z,36.00
2023-05-03T04:35:32.554Z,40.00
2023-05-03T04:36:32.548Z,40.00
2023-05-03T04:37:32.549Z,40.00
2023-05-03T04:38:32.543Z,44.00
2023-05-03T04:39:32.541Z,44.00
2023-05-03T04:40:32.532Z,48.00
2023-05-03T04:41:32.522Z,48.00
2023-05-03T04:42:32.517Z,48.00
2023-05-03T04:43:32.516Z,48.00
2023-05-03T04:44:32.536Z,56.00
2023-05-03T04:45:32.502Z,68.00
2023-05-03T04:46:32.557Z,92.00
2023-05-03T04:47:32.514Z,96.00
2023-05-03T04:48:32.493Z,116.00
2023-05-03T04:49:32.479Z,132.00
2023-05-03T04:50:32.482Z,144.00
2023-05-03T04:51:32.471Z,144.00
2023-05-03T04:52:32.467Z,148.00
2023-05-03T04:53:32.463Z,156.00
2023-05-03T04:54:32.456Z,164.00
2023-05-03T04:55:32.450Z,168.00
2023-05-03T04:56:32.442Z,172.00
2023-05-03T04:57:32.435Z,168.00
2023-05-03T04:58:32.434Z,156.00
2023-05-03T04:59:32.433Z,144.00
2023-05-03T05:00:32.440Z,132.00
2023-05-03T05:01:32.525Z,128.00
2023-05-03T05:02:32.531Z,116.00
2023-05-03T05:03:32.516Z,116.00
2023-05-03T05:04:32.400Z,112.00
2023-05-03T05:05:32.747Z,108.00
2023-05-03T05:06:32.419Z,104.00
2023-05-03T05:07:32.494Z,108.00
2023-05-03T05:08:32.395Z,112.00
2023-05-03T05:09:32.378Z,116.00
2023-05-03T05:10:32.368Z,116.00
2023-05-03T05:11:32.364Z,116.00
2023-05-03T05:12:32.466Z,116.00
2023-05-03T05:13:32.359Z,120.00
2023-05-03T05:14:32.356Z,116.00
2023-05-03T05:15:32.341Z,124.00
2023-05-03T05:16:32.483Z,124.00
2023-05-03T05:17:32.594Z,128.00
2023-05-03T05:18:32.367Z,136.00
2023-05-03T05:19:32.331Z,132.00
2023-05-03T05:20:32.328Z,124.00
2023-05-03T05:21:32.309Z,124.00
2023-05-03T05:22:32.304Z,120.00
2023-05-03T05:23:32.302Z,116.00
2023-05-03T05:24:32.300Z,112.00
2023-05-03T05:25:32.299Z,112.00
2023-05-03T05:26:32.286Z,116.00
2023-05-03T05:27:32.286Z,112.00
2023-05-03T05:28:32.274Z,116.00
2023-05-03T05:29:32.270Z,116.00
2023-05-03T05:30:32.266Z,116.00
2023-05-03T05:31:32.320Z,120.00
2023-05-03T05:32:32.271Z,124.00
2023-05-03T05:33:32.368Z,124.00
2023-05-03T05:34:39.081Z,128.00
2023-05-03T05:35:32.249Z,132.00
2023-05-03T05:36:32.232Z,140.00
2023-05-03T05:37:32.227Z,144.00
2023-05-03T05:38:32.226Z,148.00
2023-05-03T05:39:32.217Z,156.00
2023-05-03T05:40:32.210Z,160.00
2023-05-03T05:41:32.240Z,164.00
2023-05-03T05:42:32.203Z,156.00
2023-05-03T05:43:32.196Z,156.00
2023-05-03T05:44:32.193Z,160.00
2023-05-03T05:45:32.186Z,164.00
2023-05-03T05:46:32.241Z,160.00
2023-05-03T05:47:32.201Z,160.00
2023-05-03T05:48:32.200Z,156.00
2023-05-03T05:49:32.168Z,156.00
2023-05-03T05:50:32.167Z,160.00
2023-05-03T05:51:32.173Z,164.00
2023-05-03T05:52:32.160Z,164.00
2023-05-03T05:53:32.151Z,168.00
2023-05-03T05:54:32.146Z,172.00
2023-05-03T05:55:32.145Z,172.00
2023-05-03T05:56:32.132Z,184.00
2023-05-03T05:57:32.135Z,184.00
2023-05-03T05:58:32.120Z,188.00
2023-05-03T05:59:32.139Z,188.00
2023-05-03T06:00:32.127Z,192.00
2023-05-03T06:01:32.152Z,188.00
2023-05-03T06:02:32.199Z,192.00
2023-05-03T06:03:32.102Z,196.00
2023-05-03T06:04:32.161Z,208.00
2023-05-03T06:05:32.200Z,216.00
2023-05-03T06:06:32.096Z,216.00
2023-05-03T06:07:32.081Z,216.00
2023-05-03T06:08:32.076Z,216.00
2023-05-03T06:09:32.072Z,216.00
2023-05-03T06:10:32.453Z,216.00
2023-05-03T06:11:32.061Z,212.00
2023-05-03T06:12:32.054Z,216.00
2023-05-03T06:13:32.057Z,212.00
2023-05-03T06:14:32.054Z,212.00
2023-05-03T06:15:32.043Z,212.00
2023-05-03T06:16:32.103Z,220.00
2023-05-03T06:17:32.098Z,220.00
2023-05-03T06:18:32.027Z,232.00
2023-05-03T06:19:32.024Z,240.00
2023-05-03T06:20:32.046Z,240.00
2023-05-03T06:21:32.018Z,248.00
2023-05-03T06:22:32.016Z,248.00
2023-05-03T06:23:32.001Z,256.00
2023-05-03T06:24:32.002Z,260.00
2023-05-03T06:25:32.002Z,256.00
2023-05-03T06:26:31.994Z,260.00
2023-05-03T06:27:31.984Z,260.00
2023-05-03T06:28:31.999Z,264.00
2023-05-03T06:29:31.975Z,264.00
2023-05-03T06:30:31.996Z,260.00
2023-05-03T06:31:32.060Z,264.00
2023-05-03T06:32:31.969Z,268.00
2023-05-03T06:33:31.958Z,268.00
2023-05-03T06:34:31.955Z,268.00
2023-05-03T06:35:31.945Z,276.00
2023-05-03T06:36:31.968Z,284.00
2023-05-03T06:37:31.938Z,288.00
2023-05-03T06:38:31.931Z,300.00
2023-05-03T06:39:31.935Z,312.00
2023-05-03T06:40:31.923Z,320.00
2023-05-03T06:41:31.919Z,308.00
2023-05-03T06:42:31.908Z,336.00
2023-05-03T06:43:31.921Z,340.00
2023-05-03T06:44:31.904Z,332.00
2023-05-03T06:45:31.900Z,336.00
2023-05-03T06:46:31.938Z,344.00
2023-05-03T06:47:31.921Z,352.00
2023-05-03T06:48:31.920Z,352.00
2023-05-03T06:49:31.878Z,364.00
2023-05-03T06:50:31.874Z,372.00
2023-05-03T06:51:31.874Z,364.00
2023-05-03T06:52:31.924Z,372.00
2023-05-03T06:53:31.863Z,364.00
2023-05-03T06:54:31.879Z,368.00
2023-05-03T06:55:31.869Z,380.00
2023-05-03T06:56:31.858Z,372.00
2023-05-03T06:57:31.861Z,372.00
2023-05-03T06:58:31.849Z,392.00
2023-05-03T06:59:31.853Z,396.00
2023-05-03T07:00:31.829Z,404.00
2023-05-03T07:01:31.874Z,392.00
2023-05-03T07:02:31.854Z,408.00
2023-05-03T07:03:32.001Z,404.00
2023-05-03T07:04:31.815Z,364.00
2023-05-03T07:05:31.818Z,400.00
2023-05-03T07:06:35.535Z,444.00
2023-05-03T07:07:31.806Z,456.00
2023-05-03T07:08:31.820Z,632.00
2023-05-03T07:09:42.233Z,676.00
2023-05-03T07:10:31.841Z,716.00
2023-05-03T07:11:31.794Z,580.00
2023-05-03T07:12:31.784Z,732.00
2023-05-03T07:13:31.773Z,456.00
2023-05-03T07:14:31.772Z,428.00
2023-05-03T07:15:31.779Z,448.00
2023-05-03T07:16:31.827Z,452.00
2023-05-03T07:17:31.770Z,444.00
2023-05-03T07:18:31.758Z,452.00
2023-05-03T07:19:31.748Z,484.00
2023-05-03T07:20:31.744Z,464.00
2023-05-03T07:21:31.742Z,464.00
2023-05-03T07:22:31.738Z,456.00
2023-05-03T07:23:31.743Z,460.00
2023-05-03T07:24:31.920Z,460.00
2023-05-03T07:25:31.859Z,500.00
2023-05-03T07:26:31.712Z,468.00
2023-05-03T07:27:31.729Z,480.00
2023-05-03T07:28:31.712Z,480.00
2023-05-03T07:29:31.708Z,524.00
2023-05-03T07:30:31.701Z,540.00
2023-05-03T07:31:31.701Z,536.00
2023-05-03T07:32:31.806Z,524.00
2023-05-03T07:33:31.786Z,532.00
2023-05-03T07:34:31.707Z,580.00
2023-05-03T07:35:31.687Z,552.00
2023-05-03T07:36:31.675Z,604.00
2023-05-03T07:37:31.672Z,640.00
2023-05-03T07:38:31.670Z,704.00
2023-05-03T07:39:31.663Z,728.00
2023-05-03T07:40:31.679Z,968.00
2023-05-03T07:41:31.672Z,904.00
2023-05-03T07:42:31.649Z,828.00
2023-05-03T07:43:31.651Z,732.00
2023-05-03T07:44:31.655Z,828.00
2023-05-03T07:45:31.688Z,868.00
2023-05-03T07:46:31.641Z,952.00
2023-05-03T07:47:31.658Z,1052.00
2023-05-03T07:48:31.628Z,1028.00
2023-05-03T07:49:31.625Z,924.00
2023-05-03T07:50:31.618Z,936.00
2023-05-03T07:51:31.636Z,676.00
2023-05-03T07:52:31.607Z,1456.00
2023-05-03T07:53:31.612Z,776.00
2023-05-03T07:54:31.606Z,836.00
2023-05-03T07:55:31.603Z,728.00
2023-05-03T07:56:31.648Z,740.00
2023-05-03T07:57:31.592Z,2200.00
2023-05-03T07:58:40.204Z,888.00
2023-05-03T07:59:31.592Z,776.00
2023-05-03T08:00:31.582Z,764.00
2023-05-03T08:01:31.578Z,1524.00
2023-05-03T08:02:31.651Z,820.00
2023-05-03T08:03:31.828Z,808.00
2023-05-03T08:04:31.843Z,932.00
2023-05-03T08:05:31.599Z,1044.00
2023-05-03T08:06:31.717Z,1044.00
2023-05-03T08:07:31.575Z,876.00
2023-05-03T08:08:31.559Z,988.00
2023-05-03T08:09:31.571Z,1196.00
2023-05-03T08:10:31.543Z,1228.00
2023-05-03T08:11:31.543Z,752.00
2023-05-03T08:12:31.561Z,9064.00
2023-05-03T08:13:31.537Z,8572.00
2023-05-03T08:14:31.536Z,1248.00
2023-05-03T08:15:31.551Z,1160.00
2023-05-03T08:16:31.610Z,1352.00
2023-05-03T08:17:31.570Z,1548.00
2023-05-03T08:18:31.518Z,1240.00
2023-05-03T08:19:31.528Z,964.00
2023-05-03T08:20:31.513Z,1036.00
2023-05-03T08:21:31.513Z,1424.00
2023-05-03T08:22:31.511Z,1720.00
2023-05-03T08:23:31.513Z,1452.00
2023-05-03T08:24:31.505Z,1524.00
2023-05-03T08:25:31.511Z,11840.00
2023-05-03T08:26:31.503Z,12360.00
2023-05-03T08:27:31.498Z,10288.00
2023-05-03T08:28:31.538Z,10736.00
2023-05-03T08:29:31.534Z,12368.00
2023-05-03T08:30:31.535Z,12000.00
2023-05-03T08:31:31.586Z,8640.00
2023-05-03T08:32:31.526Z,5120.00
2023-05-03T08:33:31.491Z,2728.00
2023-05-03T08:34:31.481Z,4156.00
2023-05-03T08:35:31.486Z,11824.00
2023-05-03T08:36:31.487Z,20736.00
2023-05-03T08:37:31.479Z,14396.00
2023-05-03T08:38:31.568Z,21184.00
2023-05-03T08:39:31.490Z,39776.00
2023-05-03T08:40:31.470Z,41120.00
2023-05-03T08:41:31.486Z,52768.00
2023-05-03T08:42:31.472Z,61024.00
2023-05-03T08:43:31.474Z,61312.00
2023-05-03T08:44:31.559Z,61440.00
2023-05-03T08:45:31.479Z,53344.00
2023-05-03T08:46:31.517Z,45440.00
2023-05-03T08:47:31.477Z,35744.00
2023-05-03T08:48:31.462Z,22528.00
2023-05-03T08:49:31.471Z,20928.00
2023-05-03T08:50:31.464Z,6084.00
2023-05-03T08:51:31.461Z,16320.00
2023-05-03T08:52:31.459Z,16992.00
2023-05-03T08:53:31.454Z,10592.00
2023-05-03T08:54:31.455Z,7548.00
2023-05-03T08:55:31.453Z,7392.00
2023-05-03T08:56:31.448Z,7280.00
2023-05-03T08:57:31.449Z,7336.00
2023-05-03T08:58:31.448Z,7748.00
2023-05-03T08:59:31.452Z,4652.00
2023-05-03T09:00:31.503Z,2012.00
2023-05-03T09:01:31.463Z,1108.00
2023-05-03T09:02:31.573Z,768.00
2023-05-03T09:03:31.531Z,616.00
2023-05-03T09:04:31.491Z,556.00
2023-05-03T09:05:31.432Z,496.00
2023-05-03T09:06:31.457Z,420.00
2023-05-03T09:07:31.431Z,476.00
2023-05-03T09:08:31.437Z,456.00
2023-05-03T09:09:31.422Z,420.00
2023-05-03T09:10:31.437Z,408.00
2023-05-03T09:11:31.418Z,404.00
2023-05-03T09:12:31.420Z,400.00
2023-05-03T09:13:31.420Z,372.00
2023-05-03T09:14:31.414Z,372.00
2023-05-03T09:15:31.456Z,384.00
2023-05-03T09:16:31.539Z,400.00
2023-05-03T09:17:31.436Z,404.00
2023-05-03T09:18:31.412Z,404.00
2023-05-03T09:19:31.396Z,376.00
2023-05-03T09:20:31.400Z,380.00
2023-05-03T09:21:31.417Z,396.00
2023-05-03T09:22:31.394Z,404.00
2023-05-03T09:23:31.634Z,316.00
2023-05-03T09:24:31.399Z,340.00
2023-05-03T09:25:31.397Z,344.00
2023-05-03T09:26:31.393Z,304.00
2023-05-03T09:27:31.380Z,340.00
2023-05-03T09:28:31.380Z,336.00
2023-05-03T09:29:31.375Z,336.00
2023-05-03T09:30:31.375Z,336.00
2023-05-03T09:31:31.385Z,304.00
2023-05-03T09:32:31.427Z,328.00
2023-05-03T09:33:31.372Z,316.00
2023-05-03T09:34:31.382Z,312.00
2023-05-03T09:35:31.365Z,316.00
2023-05-03T09:36:31.359Z,316.00
2023-05-03T09:37:31.357Z,304.00
2023-05-03T09:38:31.356Z,304.00
2023-05-03T09:39:31.360Z,276.00
2023-05-03T09:40:31.351Z,280.00
2023-05-03T09:41:31.345Z,272.00
2023-05-03T09:42:31.352Z,288.00
2023-05-03T09:43:31.348Z,284.00
2023-05-03T09:44:31.338Z,280.00
2023-05-03T09:45:31.348Z,284.00
2023-05-03T09:46:31.446Z,276.00
2023-05-03T09:47:32.331Z,260.00
2023-05-03T09:48:31.393Z,264.00
2023-05-03T09:49:31.335Z,256.00
2023-05-03T09:50:31.328Z,248.00
2023-05-03T09:51:31.362Z,252.00
2023-05-03T09:52:31.315Z,252.00
2023-05-03T09:53:31.320Z,248.00
2023-05-03T09:54:31.344Z,252.00
2023-05-03T09:55:31.309Z,272.00
2023-05-03T09:56:31.305Z,268.00
2023-05-03T09:57:31.321Z,256.00
2023-05-03T09:58:31.300Z,268.00
2023-05-03T09:59:31.302Z,228.00
2023-05-03T10:00:31.295Z,224.00
2023-05-03T10:01:31.408Z,248.00
2023-05-03T10:02:31.362Z,248.00
2023-05-03T10:03:31.366Z,244.00
2023-05-03T10:04:31.399Z,240.00
2023-05-03T10:05:31.286Z,240.00
2023-05-03T10:06:31.336Z,240.00
2023-05-03T10:07:31.278Z,240.00
2023-05-03T10:08:31.273Z,252.00
2023-05-03T10:09:31.278Z,228.00
2023-05-03T10:10:31.271Z,240.00
2023-05-03T10:11:31.263Z,228.00
2023-05-03T10:12:31.274Z,240.00
2023-05-03T10:13:31.266Z,244.00
2023-05-03T10:14:31.272Z,244.00
2023-05-03T10:15:31.268Z,240.00
2023-05-03T10:16:31.277Z,244.00
2023-05-03T10:17:43.613Z,256.00
2023-05-03T10:18:31.303Z,272.00
2023-05-03T10:19:31.246Z,264.00
2023-05-03T10:20:31.262Z,232.00
2023-05-03T10:21:31.236Z,224.00
2023-05-03T10:22:31.243Z,216.00
2023-05-03T10:23:31.234Z,240.00
2023-05-03T10:24:31.226Z,228.00
2023-05-03T10:25:31.236Z,252.00
2023-05-03T10:26:31.221Z,256.00
2023-05-03T10:27:31.217Z,240.00
2023-05-03T10:28:31.215Z,232.00
2023-05-03T10:29:31.214Z,224.00
2023-05-03T10:30:31.415Z,220.00
2023-05-03T10:31:31.229Z,220.00
2023-05-03T10:32:31.257Z,204.00
2023-05-03T10:33:31.201Z,204.00
2023-05-03T10:34:31.238Z,204.00
2023-05-03T10:35:31.206Z,188.00
2023-05-03T10:36:45.891Z,196.00
2023-05-03T10:37:31.183Z,192.00
2023-05-03T10:38:31.187Z,208.00
2023-05-03T10:39:31.183Z,208.00
2023-05-03T10:40:31.181Z,200.00
2023-05-03T10:41:31.181Z,208.00
2023-05-03T10:42:31.183Z,196.00
2023-05-03T10:43:31.190Z,200.00
2023-05-03T10:44:31.166Z,208.00
2023-05-03T10:45:31.194Z,212.00
2023-05-03T10:46:31.203Z,268.00
2023-05-03T10:47:31.198Z,216.00
2023-05-03T10:48:31.150Z,200.00
2023-05-03T10:49:31.149Z,212.00
2023-05-03T10:50:31.143Z,216.00
2023-05-03T10:51:31.145Z,216.00
2023-05-03T10:52:31.167Z,208.00
2023-05-03T10:53:31.136Z,200.00
2023-05-03T10:54:31.132Z,192.00
2023-05-03T10:55:31.135Z,212.00
2023-05-03T10:56:31.144Z,212.00
2023-05-03T10:57:31.127Z,208.00
2023-05-03T10:58:31.121Z,264.00
2023-05-03T10:59:31.120Z,176.00
2023-05-03T11:00:31.122Z,172.00
2023-05-03T11:01:31.168Z,156.00
2023-05-03T11:02:31.146Z,164.00
2023-05-03T11:03:31.117Z,164.00
2023-05-03T11:04:31.973Z,168.00
2023-05-03T11:05:31.099Z,176.00
2023-05-03T11:06:31.140Z,172.00
2023-05-03T11:07:31.155Z,168.00
2023-05-03T11:08:31.132Z,176.00
2023-05-03T11:09:31.107Z,180.00
2023-05-03T11:10:31.082Z,172.00
2023-05-03T11:11:31.081Z,168.00
2023-05-03T11:12:31.076Z,168.00
2023-05-03T11:13:31.166Z,204.00
2023-05-03T11:14:31.073Z,176.00
2023-05-03T11:15:31.077Z,164.00
2023-05-03T11:16:31.191Z,168.00
2023-05-03T11:17:31.072Z,164.00
2023-05-03T11:18:31.067Z,160.00
2023-05-03T11:19:31.062Z,160.00
2023-05-03T11:20:31.053Z,168.00
2023-05-03T11:21:31.061Z,152.00
2023-05-03T11:22:31.047Z,160.00
2023-05-03T11:23:31.044Z,156.00
2023-05-03T11:24:31.087Z,152.00
2023-05-03T11:25:31.040Z,148.00
2023-05-03T11:26:31.039Z,152.00
2023-05-03T11:27:31.032Z,152.00
2023-05-03T11:28:31.025Z,160.00
2023-05-03T11:29:31.031Z,164.00
2023-05-03T11:30:31.018Z,164.00
2023-05-03T11:31:31.052Z,164.00
2023-05-03T11:32:31.039Z,156.00
2023-05-03T11:33:31.005Z,152.00
2023-05-03T11:34:31.006Z,152.00
2023-05-03T11:35:31.201Z,144.00
2023-05-03T11:36:31.026Z,148.00
2023-05-03T11:37:30.993Z,144.00
2023-05-03T11:38:30.995Z,140.00
2023-05-03T11:39:30.990Z,132.00
2023-05-03T11:40:31.105Z,128.00
2023-05-03T11:41:30.990Z,120.00
2023-05-03T11:42:30.989Z,124.00
2023-05-03T11:43:30.987Z,132.00
2023-05-03T11:44:31.002Z,124.00
2023-05-03T11:45:30.977Z,124.00
2023-05-03T11:46:30.999Z,124.00
2023-05-03T11:47:31.044Z,128.00
2023-05-03T11:48:31.047Z,124.00
2023-05-03T11:49:30.968Z,128.00
2023-05-03T11:50:30.966Z,128.00
2023-05-03T11:51:30.950Z,136.00
2023-05-03T11:52:30.971Z,128.00
2023-05-03T11:53:31.008Z,124.00
2023-05-03T11:54:30.969Z,108.00
2023-05-03T11:55:30.943Z,120.00
2023-05-03T11:56:31.008Z,124.00
2023-05-03T11:57:30.945Z,128.00
2023-05-03T11:58:30.938Z,128.00
2023-05-03T11:59:30.936Z,128.00
2023-05-03T12:00:30.929Z,132.00
2023-05-03T12:01:31.040Z,124.00
2023-05-03T12:02:31.068Z,128.00
2023-05-03T12:03:32.772Z,124.00
2023-05-03T12:04:31.012Z,128.00
2023-05-03T12:05:31.177Z,124.00
2023-05-03T12:06:31.917Z,124.00
2023-05-03T12:07:31.073Z,124.00
2023-05-03T12:08:31.732Z,124.00
2023-05-03T12:09:31.742Z,124.00
2023-05-03T12:10:32.703Z,132.00
2023-05-03T12:11:33.104Z,120.00
2023-05-03T12:12:33.478Z,124.00
2023-05-03T12:13:33.559Z,124.00
2023-05-03T12:14:32.569Z,128.00
2023-05-03T12:15:31.039Z,148.00
2023-05-03T12:16:30.980Z,152.00
2023-05-03T12:17:31.057Z,152.00
2023-05-03T12:19:32.879Z,132.00
2023-05-03T12:20:51.797Z,144.00
2023-05-03T12:21:32.024Z,132.00
2023-05-03T12:22:31.181Z,136.00
2023-05-03T12:23:31.019Z,132.00
2023-05-03T12:24:32.976Z,128.00
2023-05-03T12:25:33.622Z,124.00
2023-05-03T12:27:32.637Z,144.00
2023-05-03T12:28:30.947Z,132.00
2023-05-03T12:29:33.794Z,148.00
2023-05-03T12:30:33.583Z,140.00
2023-05-03T12:31:34.305Z,132.00
2023-05-03T12:32:30.943Z,136.00
2023-05-03T12:33:33.468Z,136.00
2023-05-03T12:34:34.915Z,144.00
2023-05-03T12:35:33.491Z,128.00
2023-05-03T12:36:31.539Z,128.00
2023-05-03T12:37:33.420Z,128.00
2023-05-03T12:38:31.291Z,132.00
2023-05-03T12:39:32.755Z,148.00
2023-05-03T12:40:34.127Z,128.00
2023-05-03T12:42:33.014Z,128.00
2023-05-03T12:43:30.886Z,120.00
2023-05-03T12:44:34.452Z,120.00
2023-05-03T12:45:33.652Z,108.00